Time;durP1;ratioP1;P1;durP2;ratioP2;P2;SDS_P1;SDS_P2;PMS_P1;PMS_P2;Temp;Humidity;BMP_temperature;BMP_pressure;BME280_temperature;BME280_humidity;BME280_pressure;Samples;Min_cycle;Max_cycle;Signal;HPM_P1;HPM_P2
2021/08/26 00:00:57;;;;;;;5.30;4.80;;;16.60;99.90;;;;;;5029170;28;20556;-57
2021/08/26 00:06:14;;;;;;;7.70;6.53;;;16.40;99.90;;;;;;5028372;28;20416;-52
2021/08/26 00:08:39;;;;;;;8.90;5.90;;;16.30;99.90;;;;;;5023032;28;20940;-53
2021/08/26 00:11:05;;;;;;;6.57;5.93;;;16.30;99.90;;;;;;5029035;28;20433;-54
2021/08/26 00:13:31;;;;;;;7.30;6.50;;;16.20;99.90;;;;;;5027841;28;20919;-53
2021/08/26 00:15:58;;;;;;;8.13;7.33;;;16.20;99.90;;;;;;5027615;28;20183;-53
2021/08/26 00:18:24;;;;;;;7.53;6.83;;;16.10;99.90;;;;;;5028310;28;21028;-54
2021/08/26 00:20:53;;;;;;;8.50;7.57;;;16.10;99.90;;;;;;5028474;28;20437;-52
2021/08/26 00:23:23;;;;;;;8.70;7.80;;;16.00;99.90;;;;;;5026480;28;20516;-55
2021/08/26 00:25:50;;;;;;;9.80;9.00;;;16.00;99.90;;;;;;5029223;28;20414;-52
2021/08/26 00:28:16;;;;;;;10.47;9.47;;;15.90;99.90;;;;;;5028153;28;21002;-55
2021/08/26 00:30:42;;;;;;;10.10;9.20;;;15.80;99.90;;;;;;5027663;28;20437;-56
2021/08/26 00:33:08;;;;;;;9.63;8.70;;;15.80;99.90;;;;;;5028000;28;21136;-55
2021/08/26 00:35:34;;;;;;;12.00;10.87;;;15.80;99.90;;;;;;5027675;28;20182;-55
2021/08/26 00:38:00;;;;;;;11.90;10.90;;;15.70;99.90;;;;;;5026868;28;20920;-53
2021/08/26 00:40:25;;;;;;;12.20;11.10;;;15.70;99.90;;;;;;5022840;28;20433;-53
2021/08/26 00:42:51;;;;;;;12.83;11.73;;;15.70;99.90;;;;;;5029113;28;20851;-52
2021/08/26 00:45:17;;;;;;;13.90;12.60;;;15.70;99.90;;;;;;5027261;28;20221;-56
2021/08/26 00:47:44;;;;;;;13.50;12.30;;;15.70;99.90;;;;;;5028480;28;20237;-52
2021/08/26 00:50:10;;;;;;;13.40;12.20;;;15.70;99.90;;;;;;5025618;28;20520;-51
2021/08/26 00:52:37;;;;;;;15.67;14.23;;;15.70;99.90;;;;;;5028502;28;20433;-53
2021/08/26 00:55:04;;;;;;;14.83;13.53;;;15.60;99.90;;;;;;5027745;28;21016;-50
2021/08/26 00:57:30;;;;;;;15.50;13.77;;;15.60;99.90;;;;;;5028945;28;20787;-53
2021/08/26 00:59:56;;;;;;;14.60;13.20;;;15.60;99.90;;;;;;5027451;28;20469;-53
2021/08/26 01:02:48;;;;;;;13.53;12.37;;;15.60;99.90;;;;;;5022215;28;20175;-53
2021/08/26 01:05:28;;;;;;;15.00;13.57;;;15.60;99.90;;;;;;5028477;28;20568;-53
2021/08/26 01:08:01;;;;;;;15.70;14.00;;;15.50;99.90;;;;;;5027412;28;20468;-50
2021/08/26 01:10:27;;;;;;;16.20;14.60;;;15.50;99.90;;;;;;5027715;28;20438;-52
2021/08/26 01:12:56;;;;;;;14.67;13.37;;;15.50;99.90;;;;;;5027648;28;20448;-51
2021/08/26 01:15:27;;;;;;;15.00;13.60;;;15.50;99.90;;;;;;5027330;28;20947;-55
2021/08/26 01:17:53;;;;;;;15.83;14.43;;;15.40;99.90;;;;;;5029130;28;20555;-50
2021/08/26 01:20:18;;;;;;;16.07;14.57;;;15.40;99.90;;;;;;5031798;28;20460;-52
2021/08/26 01:22:44;;;;;;;15.40;14.00;;;15.40;99.90;;;;;;5028478;28;21114;-53
2021/08/26 01:25:14;;;;;;;16.03;14.50;;;15.30;99.90;;;;;;5032157;28;20534;-54
2021/08/26 01:27:47;;;;;;;16.33;14.70;;;15.30;99.90;;;;;;5030319;28;20570;-50
2021/08/26 01:30:17;;;;;;;14.40;13.00;;;15.30;99.90;;;;;;5031768;28;20461;-55
2021/08/26 01:32:44;;;;;;;16.60;15.00;;;15.30;99.90;;;;;;5032343;28;20440;-53
2021/08/26 01:35:11;;;;;;;15.87;14.27;;;15.30;99.90;;;;;;5031149;28;20186;-51
2021/08/26 01:37:40;;;;;;;16.17;14.47;;;15.30;99.90;;;;;;5031507;28;20560;-51
2021/08/26 01:40:07;;;;;;;15.03;13.60;;;15.40;99.90;;;;;;5031634;28;20421;-53
2021/08/26 01:42:34;;;;;;;16.47;14.93;;;15.30;99.90;;;;;;5031355;28;20794;-55
2021/08/26 01:45:00;;;;;;;15.33;13.83;;;15.30;99.90;;;;;;5031465;28;20764;-51
2021/08/26 01:47:26;;;;;;;15.90;14.40;;;15.20;99.90;;;;;;5031506;28;20436;-49
2021/08/26 01:49:52;;;;;;;16.43;14.93;;;15.20;99.90;;;;;;5027943;28;20266;-54
2021/08/26 01:52:21;;;;;;;15.57;14.13;;;15.20;99.90;;;;;;5032019;28;20222;-53
2021/08/26 01:54:54;;;;;;;15.73;14.20;;;15.20;99.90;;;;;;5030556;28;20498;-54
2021/08/26 01:57:21;;;;;;;15.00;13.60;;;15.10;99.90;;;;;;5030917;28;20464;-53
2021/08/26 01:59:48;;;;;;;15.87;14.37;;;15.10;99.90;;;;;;5031011;28;20828;-54
2021/08/26 02:02:14;;;;;;;15.97;14.57;;;15.10;99.90;;;;;;5031632;28;20438;-54
2021/08/26 02:04:40;;;;;;;16.20;14.67;;;15.10;99.90;;;;;;5030977;28;20524;-53
2021/08/26 02:07:06;;;;;;;16.87;15.27;;;15.10;99.90;;;;;;5031536;28;20852;-54
2021/08/26 02:09:31;;;;;;;13.67;12.37;;;15.20;99.90;;;;;;5030124;28;20191;-54
2021/08/26 02:11:57;;;;;;;13.20;12.00;;;15.10;99.90;;;;;;5030873;28;20452;-51
2021/08/26 02:14:23;;;;;;;14.10;12.70;;;15.10;99.90;;;;;;5030536;28;20663;-49
2021/08/26 02:16:49;;;;;;;12.77;11.60;;;15.10;99.90;;;;;;5029433;28;20481;-54
2021/08/26 02:19:15;;;;;;;12.40;11.30;;;15.10;99.90;;;;;;5029423;28;20190;-53
2021/08/26 02:21:41;;;;;;;13.90;12.50;;;15.00;99.90;;;;;;5031926;28;20178;-50
2021/08/26 02:24:07;;;;;;;12.70;11.50;;;15.10;99.90;;;;;;5028796;28;20437;-52
2021/08/26 02:26:33;;;;;;;11.97;10.87;;;15.00;99.90;;;;;;5030858;28;20183;-49
2021/08/26 02:28:58;;;;;;;11.80;10.80;;;15.10;99.90;;;;;;5029673;28;20452;-52
2021/08/26 02:31:24;;;;;;;11.80;10.70;;;15.10;99.90;;;;;;5030449;28;20843;-50
2021/08/26 02:33:50;;;;;;;12.57;11.47;;;15.00;99.90;;;;;;5029671;28;20577;-52
2021/08/26 02:36:15;;;;;;;12.10;11.00;;;15.10;99.90;;;;;;5030854;28;20433;-51
2021/08/26 02:38:41;;;;;;;11.03;10.20;;;15.10;99.90;;;;;;5030431;28;20633;-52
2021/08/26 02:41:07;;;;;;;10.57;9.70;;;15.10;99.90;;;;;;5031640;28;20183;-52
2021/08/26 02:43:32;;;;;;;10.77;9.87;;;15.10;99.90;;;;;;5029861;28;20210;-52
2021/08/26 02:45:58;;;;;;;10.20;9.30;;;15.10;99.90;;;;;;5031246;28;20206;-49
2021/08/26 02:48:23;;;;;;;9.53;8.83;;;15.00;99.90;;;;;;5030105;28;20230;-51
2021/08/26 02:50:49;;;;;;;9.57;8.70;;;15.10;99.90;;;;;;5028142;28;20187;-52
2021/08/26 02:53:15;;;;;;;10.10;9.30;;;15.00;99.90;;;;;;5030342;28;20187;-54
2021/08/26 02:55:40;;;;;;;8.97;8.27;;;15.10;99.90;;;;;;5041998;28;20545;-49
2021/08/26 02:58:06;;;;;;;8.70;8.00;;;15.10;99.90;;;;;;5024409;28;20218;-49
2021/08/26 03:00:31;;;;;;;8.40;7.70;;;15.00;99.90;;;;;;5029686;28;20238;-48
2021/08/26 03:02:57;;;;;;;10.23;9.43;;;15.00;99.90;;;;;;5028257;28;20934;-54
2021/08/26 03:05:22;;;;;;;8.10;7.40;;;15.00;99.90;;;;;;5029272;28;20179;-51
2021/08/26 03:07:48;;;;;;;6.30;5.70;;;15.00;99.90;;;;;;5031177;28;20266;-51
2021/08/26 03:10:13;;;;;;;5.27;4.80;;;14.90;99.90;;;;;;5028375;28;20205;-53
2021/08/26 03:12:39;;;;;;;5.13;4.57;;;14.80;99.90;;;;;;5029009;28;20194;-46
2021/08/26 03:15:05;;;;;;;6.47;5.63;;;14.70;99.90;;;;;;5028412;28;20187;-52
2021/08/26 03:17:31;;;;;;;5.30;4.43;;;14.60;99.90;;;;;;5029491;28;20703;-52
2021/08/26 03:19:56;;;;;;;4.90;4.40;;;14.60;99.90;;;;;;5030297;28;20426;-53
2021/08/26 03:22:22;;;;;;;4.40;4.00;;;14.50;99.90;;;;;;5030119;28;20297;-50
2021/08/26 03:24:47;;;;;;;4.63;4.13;;;14.40;99.90;;;;;;5028906;28;20179;-51
2021/08/26 03:27:13;;;;;;;4.17;3.77;;;14.40;99.90;;;;;;5028149;28;20668;-52
2021/08/26 03:29:39;;;;;;;3.90;3.60;;;14.40;99.90;;;;;;5029347;28;20658;-50
2021/08/26 03:32:05;;;;;;;4.50;4.10;;;14.30;99.90;;;;;;5030087;28;20432;-54
2021/08/26 03:34:30;;;;;;;4.40;4.00;;;14.30;99.90;;;;;;5029271;28;20660;-55
2021/08/26 03:36:56;;;;;;;4.10;3.80;;;14.30;99.90;;;;;;5025573;28;20749;-53
2021/08/26 03:39:22;;;;;;;4.67;3.93;;;14.30;99.90;;;;;;5028852;28;20175;-49
2021/08/26 03:41:48;;;;;;;3.93;3.57;;;14.30;99.90;;;;;;5024105;28;20194;-49
2021/08/26 03:44:13;;;;;;;4.27;3.70;;;14.30;99.90;;;;;;5028636;28;20437;-54
2021/08/26 03:46:39;;;;;;;4.17;3.77;;;14.30;99.90;;;;;;5030564;28;20209;-49
2021/08/26 03:49:04;;;;;;;6.27;4.17;;;14.30;99.90;;;;;;5028923;28;20196;-52
2021/08/26 03:51:30;;;;;;;4.80;3.93;;;14.30;99.90;;;;;;5029394;28;20179;-54
2021/08/26 03:53:55;;;;;;;4.93;3.87;;;14.30;99.90;;;;;;5028704;28;20183;-52
2021/08/26 03:56:21;;;;;;;5.67;3.80;;;14.30;99.90;;;;;;5029596;28;20273;-52
2021/08/26 03:58:46;;;;;;;4.40;4.00;;;14.30;99.90;;;;;;5025461;28;20183;-51
2021/08/26 04:01:19;;;;;;;3.17;2.93;;;14.20;99.90;;;;;;5064661;28;20593;-49
2021/08/26 04:03:44;;;;;;;3.60;3.30;;;14.20;99.90;;;;;;5044582;28;20441;-54
2021/08/26 04:06:10;;;;;;;3.90;3.50;;;14.10;99.90;;;;;;5035006;28;20215;-52
2021/08/26 04:08:35;;;;;;;5.77;3.23;;;14.10;99.90;;;;;;5036192;28;20186;-49
2021/08/26 04:11:02;;;;;;;5.03;3.50;;;14.10;99.90;;;;;;5035361;28;20216;-49
2021/08/26 04:13:27;;;;;;;4.23;3.80;;;14.10;99.90;;;;;;5035921;28;20194;-53
2021/08/26 04:15:53;;;;;;;4.80;3.50;;;14.00;99.90;;;;;;5036947;28;20506;-52
2021/08/26 04:18:18;;;;;;;6.37;3.83;;;14.00;99.90;;;;;;5034070;28;20195;-49
2021/08/26 04:20:44;;;;;;;5.33;3.60;;;14.00;99.90;;;;;;5035850;28;20187;-49
2021/08/26 04:23:10;;;;;;;5.50;3.60;;;14.10;99.90;;;;;;5032102;28;20190;-52
2021/08/26 04:25:35;;;;;;;4.30;3.33;;;14.10;99.90;;;;;;5037585;28;20194;-53
2021/08/26 04:28:01;;;;;;;5.40;3.97;;;14.10;99.90;;;;;;5036670;28;20614;-53
2021/08/26 04:30:26;;;;;;;7.43;4.10;;;14.00;99.90;;;;;;5035773;28;20264;-47
2021/08/26 04:32:52;;;;;;;4.07;3.67;;;14.00;99.90;;;;;;5034130;28;20312;-52
2021/08/26 04:35:18;;;;;;;4.33;3.87;;;14.10;99.90;;;;;;5035539;28;20626;-51
2021/08/26 04:37:43;;;;;;;4.17;3.60;;;14.10;99.90;;;;;;5034612;28;20182;-53
2021/08/26 04:40:09;;;;;;;4.83;4.10;;;14.10;99.90;;;;;;5030477;28;20190;-52
2021/08/26 04:42:35;;;;;;;3.93;3.53;;;14.10;99.90;;;;;;5039015;28;20229;-53
2021/08/26 04:45:00;;;;;;;4.77;3.97;;;14.10;99.90;;;;;;5045033;28;20444;-50
2021/08/26 04:47:26;;;;;;;5.10;4.10;;;14.20;99.90;;;;;;5045078;28;20190;-48
2021/08/26 04:49:51;;;;;;;5.63;3.53;;;14.20;99.90;;;;;;5041765;28;20218;-49
2021/08/26 04:52:17;;;;;;;5.63;4.10;;;14.20;99.90;;;;;;5044974;28;20270;-49
2021/08/26 04:54:42;;;;;;;5.97;4.27;;;14.20;99.90;;;;;;5035590;28;20221;-49
2021/08/26 04:57:08;;;;;;;4.40;4.00;;;14.30;99.90;;;;;;5034327;28;20505;-49
2021/08/26 04:59:33;;;;;;;5.47;4.20;;;14.30;99.90;;;;;;5033371;28;20321;-53
2021/08/26 05:01:59;;;;;;;5.33;4.83;;;14.40;99.90;;;;;;5042213;28;20336;-53
2021/08/26 05:04:24;;;;;;;4.10;3.67;;;14.40;99.90;;;;;;5044633;28;20590;-53
2021/08/26 05:06:51;;;;;;;5.70;4.40;;;14.50;99.90;;;;;;5044642;28;20193;-48
2021/08/26 05:09:18;;;;;;;4.80;4.30;;;14.50;99.90;;;;;;5034118;28;20203;-53
2021/08/26 05:11:43;;;;;;;6.20;4.90;;;14.50;99.90;;;;;;5016333;28;20418;-52
2021/08/26 05:14:09;;;;;;;5.90;5.27;;;14.50;99.90;;;;;;5019244;28;20966;-52
2021/08/26 05:16:34;;;;;;;5.80;5.20;;;14.40;99.90;;;;;;5031890;28;20549;-52
2021/08/26 05:19:00;;;;;;;6.13;5.53;;;14.40;99.90;;;;;;5031900;28;20183;-53
2021/08/26 05:21:26;;;;;;;6.90;6.30;;;14.40;99.90;;;;;;5029594;28;20638;-53
2021/08/26 05:23:51;;;;;;;8.03;7.23;;;14.40;99.90;;;;;;5029439;28;20908;-52
2021/08/26 05:26:17;;;;;;;5.53;5.03;;;14.40;99.90;;;;;;5032054;28;20175;-53
2021/08/26 05:28:42;;;;;;;6.40;4.83;;;14.40;99.90;;;;;;5030467;28;20194;-52
2021/08/26 05:31:09;;;;;;;4.90;4.50;;;14.50;99.90;;;;;;5031517;28;20684;-50
2021/08/26 05:33:35;;;;;;;5.93;4.67;;;14.50;99.90;;;;;;5031766;28;20492;-55
2021/08/26 05:36:01;;;;;;;5.43;4.00;;;14.50;99.90;;;;;;5028045;28;20494;-52
2021/08/26 05:38:27;;;;;;;4.57;4.03;;;14.50;99.90;;;;;;5013420;28;20729;-55
2021/08/26 05:40:52;;;;;;;5.47;4.33;;;14.50;99.90;;;;;;5016957;28;20262;-55
2021/08/26 05:43:18;;;;;;;4.23;3.83;;;14.60;99.90;;;;;;5031605;28;20431;-52
2021/08/26 05:45:43;;;;;;;5.23;4.00;;;14.50;99.90;;;;;;5031481;28;20657;-53
2021/08/26 05:48:09;;;;;;;4.63;3.73;;;14.60;99.90;;;;;;5028577;28;20191;-52
2021/08/26 05:50:35;;;;;;;4.77;4.30;;;14.50;99.90;;;;;;5031014;28;20205;-53
2021/08/26 05:53:00;;;;;;;6.30;4.73;;;14.50;99.90;;;;;;5031725;28;20183;-52
2021/08/26 05:55:26;;;;;;;6.00;4.43;;;14.60;99.90;;;;;;5030655;28;20186;-53
2021/08/26 05:57:51;;;;;;;5.43;3.77;;;14.60;99.90;;;;;;5021672;28;20190;-52
2021/08/26 06:00:17;;;;;;;4.10;3.60;;;14.60;99.90;;;;;;5010722;28;20235;-54
2021/08/26 06:02:43;;;;;;;4.53;4.10;;;14.60;99.90;;;;;;5023694;28;20184;-52
2021/08/26 06:05:09;;;;;;;5.20;4.67;;;14.60;99.90;;;;;;5031080;28;20191;-53
2021/08/26 06:07:35;;;;;;;5.20;4.70;;;14.70;99.90;;;;;;5028856;28;20246;-52
2021/08/26 06:10:00;;;;;;;4.60;4.20;;;14.70;99.90;;;;;;5031037;28;20526;-54
2021/08/26 06:12:26;;;;;;;6.60;5.30;;;14.80;99.90;;;;;;5029103;28;20293;-55
2021/08/26 06:14:51;;;;;;;6.23;4.70;;;14.80;99.90;;;;;;5028923;28;20187;-51
2021/08/26 06:17:17;;;;;;;7.00;4.40;;;15.00;99.90;;;;;;5030960;28;20298;-53
2021/08/26 06:19:42;;;;;;;7.10;4.53;;;15.00;99.90;;;;;;5025147;28;20199;-51
2021/08/26 06:22:08;;;;;;;4.83;4.30;;;15.20;99.90;;;;;;5013591;28;20187;-54
2021/08/26 06:24:33;;;;;;;7.40;4.60;;;15.30;99.90;;;;;;5012277;28;20546;-54
2021/08/26 06:27:01;;;;;;;6.00;4.83;;;15.50;99.90;;;;;;5030334;28;20274;-50
2021/08/26 06:29:27;;;;;;;5.80;4.33;;;15.60;99.90;;;;;;5030781;28;20213;-50
2021/08/26 06:31:53;;;;;;;5.70;4.80;;;15.70;99.90;;;;;;5033841;28;20825;-53
2021/08/26 06:34:18;;;;;;;6.77;4.80;;;15.70;99.90;;;;;;5030539;28;20413;-50
2021/08/26 06:36:44;;;;;;;6.50;5.00;;;15.60;99.90;;;;;;5029976;28;20266;-51
2021/08/26 06:39:10;;;;;;;7.50;4.97;;;15.50;99.90;;;;;;5030350;28;20179;-50
2021/08/26 06:41:35;;;;;;;7.97;4.90;;;15.50;99.90;;;;;;5028886;28;20175;-49
2021/08/26 06:44:01;;;;;;;7.77;5.67;;;15.50;99.90;;;;;;5030380;28;20186;-48
2021/08/26 06:46:26;;;;;;;5.60;4.23;;;15.50;99.90;;;;;;5030332;28;20613;-52
2021/08/26 06:48:54;;;;;;;5.90;5.20;;;15.50;99.90;;;;;;5029773;28;20191;-52
2021/08/26 06:51:21;;;;;;;6.80;4.93;;;15.50;99.90;;;;;;5024864;28;20218;-49
2021/08/26 06:53:46;;;;;;;6.70;5.47;;;15.50;99.90;;;;;;5010815;28;20466;-49
2021/08/26 06:56:12;;;;;;;6.40;5.37;;;15.50;99.90;;;;;;5025546;28;20468;-52
2021/08/26 06:58:38;;;;;;;6.83;5.43;;;15.60;99.90;;;;;;5029945;28;20413;-53
2021/08/26 07:01:03;;;;;;;8.13;5.50;;;15.70;99.90;;;;;;5030121;28;20238;-49
2021/08/26 07:03:29;;;;;;;6.10;5.50;;;15.80;99.90;;;;;;5023183;28;20271;-54
2021/08/26 07:05:55;;;;;;;6.97;5.60;;;15.80;99.90;;;;;;5010145;28;20199;-53
2021/08/26 07:08:20;;;;;;;6.90;5.07;;;16.00;99.90;;;;;;5021034;28;20441;-50
2021/08/26 07:10:46;;;;;;;4.93;4.43;;;16.00;99.90;;;;;;5014293;28;20206;-50
2021/08/26 07:13:11;;;;;;;6.50;4.93;;;16.00;99.90;;;;;;5024791;28;20184;-51
2021/08/26 07:15:37;;;;;;;6.37;5.00;;;16.00;99.90;;;;;;5009218;28;20219;-53
2021/08/26 07:18:03;;;;;;;6.27;5.30;;;16.10;99.90;;;;;;5028059;28;20529;-50
2021/08/26 07:20:30;;;;;;;6.23;5.30;;;16.10;99.90;;;;;;5029675;28;20194;-52
2021/08/26 07:22:55;;;;;;;7.83;6.30;;;16.10;99.90;;;;;;5016082;28;20524;-54
2021/08/26 07:25:22;;;;;;;5.67;5.00;;;16.00;99.90;;;;;;5027207;28;20528;-54
2021/08/26 07:27:48;;;;;;;8.10;5.63;;;16.00;99.90;;;;;;5029808;28;20183;-53
2021/08/26 07:30:14;;;;;;;7.30;5.83;;;15.90;99.90;;;;;;5028627;28;20885;-52
2021/08/26 07:32:39;;;;;;;7.10;5.70;;;16.00;99.90;;;;;;5028762;28;20214;-50
2021/08/26 07:35:05;;;;;;;8.17;5.60;;;16.10;99.90;;;;;;5029274;28;20802;-54
2021/08/26 07:37:31;;;;;;;7.93;5.97;;;16.10;99.90;;;;;;5029045;28;20186;-49
2021/08/26 07:39:56;;;;;;;8.43;6.07;;;16.20;99.90;;;;;;5012310;28;20437;-51
2021/08/26 07:42:22;;;;;;;7.00;5.73;;;16.50;99.90;;;;;;5009371;28;20190;-53
2021/08/26 07:44:47;;;;;;;6.50;5.90;;;16.60;99.90;;;;;;5024850;28;20294;-50
2021/08/26 07:47:13;;;;;;;6.90;5.87;;;16.70;99.90;;;;;;5015111;28;20196;-51
2021/08/26 07:49:38;;;;;;;7.37;6.60;;;16.70;99.90;;;;;;5024904;28;20215;-53
2021/08/26 07:52:04;;;;;;;7.97;6.70;;;16.60;99.90;;;;;;5009147;28;20267;-53
2021/08/26 07:54:30;;;;;;;9.20;7.17;;;16.30;99.90;;;;;;5010656;28;20683;-51
2021/08/26 07:56:57;;;;;;;8.73;6.67;;;16.10;99.90;;;;;;5019033;28;20171;-53
2021/08/26 07:59:23;;;;;;;6.70;5.50;;;15.80;99.90;;;;;;5008690;28;20231;-51
2021/08/26 08:01:48;;;;;;;5.57;5.03;;;15.40;99.90;;;;;;5028343;28;20429;-49
2021/08/26 08:04:14;;;;;;;5.30;4.83;;;15.20;99.90;;;;;;5029199;28;20195;-52
2021/08/26 08:06:39;;;;;;;8.13;5.40;;;15.10;99.90;;;;;;5027991;28;20187;-49
2021/08/26 08:09:05;;;;;;;6.90;5.43;;;15.00;99.90;;;;;;5012108;28;20191;-55
2021/08/26 08:11:30;;;;;;;7.20;5.70;;;15.10;99.90;;;;;;5025990;28;20201;-55
2021/08/26 08:13:56;;;;;;;8.40;5.90;;;15.20;99.90;;;;;;5028130;28;20653;-51
2021/08/26 08:16:21;;;;;;;8.60;6.10;;;15.40;99.90;;;;;;5028637;28;20214;-55
2021/08/26 08:18:47;;;;;;;7.90;6.27;;;15.50;99.90;;;;;;5028268;28;20672;-55
2021/08/26 08:21:12;;;;;;;11.70;7.47;;;15.70;99.90;;;;;;5028721;28;20297;-53
2021/08/26 08:23:38;;;;;;;8.80;6.70;;;15.90;99.90;;;;;;5027410;28;20217;-54
2021/08/26 08:26:04;;;;;;;7.33;6.40;;;16.10;99.90;;;;;;5028294;28;20191;-57
2021/08/26 08:28:29;;;;;;;7.37;5.90;;;16.10;99.90;;;;;;5028415;28;20182;-52
2021/08/26 08:30:55;;;;;;;7.17;6.03;;;16.20;99.90;;;;;;5028228;28;20695;-53
2021/08/26 08:33:20;;;;;;;6.90;5.47;;;16.20;99.90;;;;;;5028027;28;20270;-54
2021/08/26 08:35:46;;;;;;;7.30;6.10;;;16.20;99.90;;;;;;5028428;28;20187;-52
2021/08/26 08:38:12;;;;;;;7.90;5.40;;;16.20;99.90;;;;;;5028457;28;20179;-53
2021/08/26 08:40:39;;;;;;;10.70;6.20;;;16.20;99.90;;;;;;5028176;28;20210;-54
2021/08/26 08:43:05;;;;;;;7.13;6.30;;;16.20;99.90;;;;;;5027833;28;20701;-53
2021/08/26 08:45:30;;;;;;;8.93;6.70;;;16.30;99.90;;;;;;5027719;28;20426;-52
2021/08/26 08:47:58;;;;;;;6.30;5.70;;;16.40;99.90;;;;;;5026219;28;20262;-54
2021/08/26 08:50:26;;;;;;;10.90;5.87;;;16.70;99.90;;;;;;5030671;28;20268;-51
2021/08/26 08:52:52;;;;;;;7.03;5.40;;;17.20;99.90;;;;;;5030993;28;20904;-53
2021/08/26 08:55:19;;;;;;;6.70;4.93;;;17.70;99.90;;;;;;5031018;28;20417;-57
2021/08/26 08:57:45;;;;;;;6.57;5.50;;;18.20;99.90;;;;;;5031002;28;20519;-51
2021/08/26 09:00:13;;;;;;;5.37;4.87;;;18.50;99.90;;;;;;5031065;28;20563;-51
2021/08/26 09:02:40;;;;;;;5.90;5.00;;;18.50;99.90;;;;;;5031157;28;20514;-52
2021/08/26 09:05:06;;;;;;;6.80;5.40;;;18.10;99.90;;;;;;5031218;28;20438;-52
2021/08/26 09:07:33;;;;;;;7.30;5.93;;;17.70;99.90;;;;;;5030801;28;20418;-51
2021/08/26 09:09:59;;;;;;;6.30;5.30;;;17.40;99.90;;;;;;5029668;28;20461;-52
2021/08/26 09:12:40;;;;;;;6.43;5.23;;;17.10;99.90;;;;;;5030981;28;20415;-55
2021/08/26 09:15:12;;;;;;;7.43;5.40;;;17.10;99.90;;;;;;5030837;28;21154;-52
2021/08/26 09:17:38;;;;;;;6.07;5.30;;;17.30;99.90;;;;;;5030149;28;20411;-56
2021/08/26 09:20:06;;;;;;;6.90;5.80;;;17.30;99.90;;;;;;5031076;28;20765;-53
2021/08/26 09:22:32;;;;;;;8.67;5.27;;;17.30;99.90;;;;;;5030453;28;20471;-56
2021/08/26 09:24:58;;;;;;;6.27;5.43;;;17.40;99.90;;;;;;5030801;28;20430;-56
2021/08/26 09:27:38;;;;;;;6.90;5.37;;;17.40;99.90;;;;;;5030411;28;20190;-53
2021/08/26 09:30:04;;;;;;;7.43;6.60;;;17.50;99.90;;;;;;5030394;28;20997;-54
2021/08/26 09:32:33;;;;;;;6.00;5.40;;;17.60;99.90;;;;;;5030349;28;20447;-57
2021/08/26 09:35:15;;;;;;;5.73;5.17;;;17.60;99.90;;;;;;5030597;28;20631;-57
2021/08/26 09:37:59;;;;;;;7.63;5.47;;;17.40;99.90;;;;;;5030091;28;20444;-55
2021/08/26 09:40:28;;;;;;;6.03;5.43;;;17.20;99.90;;;;;;5027105;28;20415;-54
2021/08/26 09:43:03;;;;;;;7.37;5.67;;;17.00;99.90;;;;;;5030048;28;20434;-53
2021/08/26 09:45:31;;;;;;;7.47;5.57;;;16.90;99.90;;;;;;5030175;28;20446;-54
2021/08/26 09:48:06;;;;;;;7.57;5.50;;;16.80;99.90;;;;;;5029945;28;20447;-58
2021/08/26 09:50:41;;;;;;;6.07;4.73;;;16.80;99.90;;;;;;5030571;28;20506;-56
2021/08/26 09:53:08;;;;;;;6.00;5.40;;;16.90;99.90;;;;;;5030063;28;20472;-57
2021/08/26 09:55:52;;;;;;;6.40;5.37;;;16.90;99.90;;;;;;5028786;28;20414;-54
2021/08/26 09:58:20;;;;;;;6.67;5.13;;;17.10;99.90;;;;;;5028957;28;20423;-58
2021/08/26 10:00:46;;;;;;;5.63;4.93;;;17.10;99.90;;;;;;5027566;28;20862;-56
2021/08/26 10:03:14;;;;;;;6.57;5.10;;;17.30;99.90;;;;;;5026330;28;20418;-55
2021/08/26 10:05:42;;;;;;;7.90;5.10;;;17.60;99.90;;;;;;5029869;28;20430;-58
2021/08/26 10:08:12;;;;;;;5.60;4.90;;;17.80;99.90;;;;;;5028402;28;20469;-54
2021/08/26 10:10:39;;;;;;;6.50;4.87;;;18.10;99.90;;;;;;5029992;28;20469;-55
2021/08/26 10:13:05;;;;;;;7.57;5.47;;;18.70;99.90;;;;;;5029129;28;20449;-52
2021/08/26 10:15:32;;;;;;;5.63;5.03;;;19.50;99.90;;;;;;5021801;28;20415;-56
2021/08/26 10:17:58;;;;;;;5.13;4.67;;;20.40;99.90;;;;;;5013352;28;20421;-57
2021/08/26 10:20:23;;;;;;;7.47;5.50;;;21.30;99.90;;;;;;5010826;28;20419;-57
2021/08/26 10:22:51;;;;;;;5.87;5.30;;;22.30;99.90;;;;;;5025074;28;20189;-56
2021/08/26 10:25:16;;;;;;;6.23;5.63;;;23.20;99.00;;;;;;5029858;28;20182;-55
2021/08/26 10:27:44;;;;;;;5.67;5.07;;;23.50;96.60;;;;;;5029644;28;20432;-56
2021/08/26 10:30:27;;;;;;;6.37;5.77;;;24.20;98.30;;;;;;5029934;28;20214;-56
2021/08/26 10:33:20;;;;;;;5.90;5.50;;;24.90;94.60;;;;;;5028652;28;20464;-57
2021/08/26 10:36:08;;;;;;;6.90;6.30;;;25.10;90.60;;;;;;5023910;28;20441;-58
2021/08/26 10:38:37;;;;;;;6.30;5.80;;;24.30;91.80;;;;;;5019529;28;20872;-53
2021/08/26 10:41:18;;;;;;;6.17;5.77;;;23.70;91.60;;;;;;5027892;28;20453;-56
2021/08/26 10:43:44;;;;;;;5.83;5.27;;;23.40;92.40;;;;;;5027706;28;20496;-53
2021/08/26 10:46:11;;;;;;;6.00;5.40;;;23.40;94.20;;;;;;5027760;28;20995;-56
2021/08/26 10:48:38;;;;;;;6.17;5.67;;;22.80;94.30;;;;;;5028795;28;20525;-57
2021/08/26 10:51:16;;;;;;;7.40;6.40;;;21.70;96.40;;;;;;5029177;28;20478;-57
2021/08/26 10:53:47;;;;;;;5.47;4.97;;;20.80;99.90;;;;;;5028867;28;20418;-55
2021/08/26 10:56:17;;;;;;;5.73;5.23;;;20.00;99.90;;;;;;5028339;28;20440;-56
2021/08/26 10:58:44;;;;;;;5.10;4.70;;;19.20;99.90;;;;;;5028797;28;20799;-53
2021/08/26 11:01:12;;;;;;;6.00;5.40;;;18.60;99.90;;;;;;5027897;28;20472;-52
2021/08/26 11:03:42;;;;;;;5.63;5.10;;;18.10;99.90;;;;;;5027457;28;20463;-54
2021/08/26 11:06:14;;;;;;;6.40;5.20;;;17.80;99.90;;;;;;5027342;28;20472;-54
2021/08/26 11:08:43;;;;;;;6.17;5.33;;;17.60;99.90;;;;;;5025748;28;20469;-55
2021/08/26 11:11:27;;;;;;;5.00;4.00;;;17.50;99.90;;;;;;5027227;28;20471;-57
2021/08/26 11:14:13;;;;;;;5.33;4.30;;;17.40;99.90;;;;;;5026805;28;20851;-56
2021/08/26 11:16:44;;;;;;;5.30;4.80;;;17.30;99.90;;;;;;5027265;28;20421;-57
2021/08/26 11:19:16;;;;;;;4.57;4.17;;;17.30;99.90;;;;;;5027209;28;20424;-55
2021/08/26 11:24:08;;;;;;;6.40;4.27;;;18.30;99.90;;;;;;5028437;28;21079;-57
2021/08/26 11:27:04;;;;;;;4.87;4.27;;;18.60;99.90;;;;;;5028420;28;20677;-57
2021/08/26 11:29:29;;;;;;;4.73;4.20;;;18.80;99.90;;;;;;5026999;28;20475;-57
2021/08/26 11:31:55;;;;;;;4.37;3.97;;;18.80;99.90;;;;;;5026947;28;20923;-55
2021/08/26 11:34:43;;;;;;;4.33;3.93;;;18.90;99.90;;;;;;5027374;28;20553;-59
2021/08/26 11:37:23;;;;;;;4.27;3.90;;;19.30;99.90;;;;;;5027383;28;20182;-56
2021/08/26 11:40:03;;;;;;;4.87;4.50;;;20.00;99.90;;;;;;5027563;28;20410;-58
2021/08/26 11:42:44;;;;;;;5.03;4.63;;;20.90;99.90;;;;;;5028206;28;20409;-55
2021/08/26 11:45:13;;;;;;;4.80;4.50;;;22.30;99.90;;;;;;5027079;28;20756;-56
2021/08/26 11:47:41;;;;;;;5.27;4.77;;;23.70;99.90;;;;;;5026519;28;20782;-56
2021/08/26 11:50:27;;;;;;;5.53;5.07;;;24.40;96.70;;;;;;5026570;28;20473;-57
2021/08/26 11:53:04;;;;;;;6.20;5.70;;;24.60;96.20;;;;;;5025787;28;20824;-56
2021/08/26 11:55:44;;;;;;;6.50;6.00;;;24.70;92.60;;;;;;5028620;28;20417;-55
2021/08/26 11:58:11;;;;;;;6.57;6.07;;;24.50;92.10;;;;;;5028579;28;21342;-54
2021/08/26 12:00:43;;;;;;;6.53;6.00;;;23.50;93.20;;;;;;5026701;28;20460;-56
2021/08/26 12:03:09;;;;;;;6.53;5.60;;;22.30;98.70;;;;;;5027679;28;20514;-54
2021/08/26 12:05:34;;;;;;;6.63;6.13;;;21.70;99.90;;;;;;5028171;28;20529;-56
2021/08/26 12:08:05;;;;;;;6.57;5.90;;;21.10;99.90;;;;;;5026977;28;20221;-56
2021/08/26 12:10:33;;;;;;;7.50;6.80;;;20.20;99.90;;;;;;5027371;28;20217;-58
2021/08/26 12:13:04;;;;;;;6.33;5.73;;;19.20;99.90;;;;;;5028486;28;20417;-53
2021/08/26 12:15:39;;;;;;;6.70;5.63;;;18.20;99.90;;;;;;5028190;28;20415;-55
2021/08/26 12:18:11;;;;;;;6.10;5.20;;;17.80;99.90;;;;;;5027496;28;20534;-54
2021/08/26 12:20:40;;;;;;;6.30;5.53;;;17.60;99.90;;;;;;5028128;28;20416;-54
2021/08/26 12:23:07;;;;;;;6.07;5.47;;;17.80;99.90;;;;;;5031996;28;20427;-53
2021/08/26 12:25:37;;;;;;;4.73;4.20;;;18.60;99.90;;;;;;5032206;28;20420;-57
2021/08/26 12:28:06;;;;;;;5.10;4.60;;;19.40;99.90;;;;;;5030705;28;20426;-54
2021/08/26 12:30:33;;;;;;;4.30;4.00;;;20.10;99.90;;;;;;5032041;28;20460;-54
2021/08/26 12:33:08;;;;;;;3.50;3.20;;;20.30;99.90;;;;;;5032100;28;20414;-56
2021/08/26 12:35:48;;;;;;;4.20;3.90;;;20.20;99.90;;;;;;5031764;28;20417;-57
2021/08/26 12:38:34;;;;;;;4.20;3.90;;;20.10;99.90;;;;;;5029953;28;20483;-51
2021/08/26 12:41:05;;;;;;;3.87;3.57;;;20.00;99.90;;;;;;5030749;28;20445;-56
2021/08/26 12:43:52;;;;;;;3.63;3.33;;;19.50;99.90;;;;;;5029849;28;20442;-57
2021/08/26 12:46:21;;;;;;;4.60;3.60;;;19.30;99.90;;;;;;5031352;28;20470;-54
2021/08/26 12:48:48;;;;;;;3.10;2.90;;;19.00;99.90;;;;;;5031287;28;20463;-56
2021/08/26 12:51:17;;;;;;;4.20;3.20;;;18.50;99.90;;;;;;5026619;28;20461;-56